Time;durP1;ratioP1;P1;durP2;ratioP2;P2;SDS_P1;SDS_P2;PMS_P1;PMS_P2;Temp;Humidity;BMP_temperature;BMP_pressure;BME280_temperature;BME280_humidity;BME280_pressure;Samples;Min_cycle;Max_cycle;Signal;HPM_P1;HPM_P2
2022/11/14 00:01:27;;;;;;;14.70;10.30;;;;;;;9.16;90.21;101807.33;100834;1290;81629;-61
2022/11/14 00:03:58;;;;;;;18.40;11.40;;;;;;;9.16;90.25;101801.84;100818;1290;99521;-60
2022/11/14 00:06:35;;;;;;;15.70;10.90;;;;;;;9.18;90.09;101808.20;100793;1286;95614;-60
2022/11/14 00:09:09;;;;;;;16.00;11.50;;;;;;;9.17;90.20;101806.81;100813;1293;82544;-58
2022/11/14 00:11:38;;;;;;;15.70;10.30;;;;;;;9.16;90.17;101806.75;100796;1291;88538;-57
2022/11/14 00:14:15;;;;;;;15.00;10.10;;;;;;;9.17;90.25;101808.41;100850;1286;82149;-61
2022/11/14 00:16:48;;;;;;;14.90;10.20;;;;;;;9.13;90.25;101804.83;100823;1292;99321;-61
2022/11/14 00:19:21;;;;;;;16.40;10.80;;;;;;;9.12;90.28;101799.79;100818;1292;94310;-58
2022/11/14 00:21:52;;;;;;;17.90;12.20;;;;;;;9.16;90.31;101798.33;100823;1292;83057;-59
2022/11/14 00:24:26;;;;;;;17.00;11.40;;;;;;;9.19;90.20;101803.70;100876;1290;89055;-62
2022/11/14 00:27:03;;;;;;;15.80;10.70;;;;;;;9.17;90.37;101800.52;100881;1292;83586;-61
2022/11/14 00:29:33;;;;;;;17.50;11.40;;;;;;;9.18;90.39;101795.39;100906;1284;97996;-61
2022/11/14 00:32:05;;;;;;;17.10;11.70;;;;;;;9.20;90.30;101799.13;100879;1290;94763;-61
2022/11/14 00:34:35;;;;;;;19.00;11.10;;;;;;;9.18;90.35;101797.19;100897;1285;82149;-61
2022/11/14 00:37:09;;;;;;;15.70;10.40;;;;;;;9.21;90.19;101794.05;100874;1291;87579;-61
2022/11/14 00:39:44;;;;;;;15.90;10.90;;;;;;;9.25;90.10;101795.74;100866;1285;80056;-59
2022/11/14 00:42:14;;;;;;;17.40;11.70;;;;;;;9.22;90.06;101792.87;100866;1285;99725;-57
2022/11/14 00:44:44;;;;;;;17.10;10.70;;;;;;;9.21;90.01;101794.42;100855;1285;94222;-59
2022/11/14 00:47:15;;;;;;;16.60;11.20;;;;;;;9.14;90.13;101788.56;100781;1290;82803;-59
2022/11/14 00:49:45;;;;;;;;;;;;;;;9.13;90.00;101789.83;100850;1292;87174;-60
2022/11/14 00:52:15;;;;;;;18.00;10.60;;;;;;;9.10;90.17;101789.69;100827;1293;82351;-60
2022/11/14 00:54:47;;;;;;;15.50;9.90;;;;;;;9.10;90.09;101787.39;100829;1290;99884;-61
2022/11/14 00:57:17;;;;;;;14.20;10.40;;;;;;;9.10;89.96;101780.58;100786;1291;95698;-62
2022/11/14 00:59:46;;;;;;;16.50;11.60;;;;;;;9.09;90.21;101778.10;100848;1292;82854;-61
2022/11/14 01:02:18;;;;;;;15.80;10.50;;;;;;;9.11;90.22;101780.30;100821;1291;87947;-60
2022/11/14 01:04:53;;;;;;;14.70;9.70;;;;;;;9.13;90.07;101776.48;100855;1285;80849;-58
2022/11/14 01:07:24;;;;;;;14.30;9.90;;;;;;;9.17;89.92;101773.71;100837;1292;99874;-58
2022/11/14 01:09:56;;;;;;;14.80;9.90;;;;;;;9.16;89.94;101767.39;100883;1292;95304;-57
2022/11/14 01:12:27;;;;;;;13.90;9.60;;;;;;;9.15;89.85;101767.31;100699;1296;82427;-57
2022/11/14 01:15:02;;;;;;;14.80;9.70;;;;;;;9.15;89.80;101767.34;100895;1292;88719;-61
2022/11/14 01:17:34;;;;;;;14.00;10.00;;;;;;;9.13;89.94;101767.30;100843;1292;81758;-61
2022/11/14 01:20:09;;;;;;;;;;;;;;;9.10;90.02;101765.21;100834;1291;99342;-59
2022/11/14 01:22:42;;;;;;;14.30;9.70;;;;;;;9.02;90.09;101762.80;100817;1292;91792;-58
2022/11/14 01:25:18;;;;;;;14.60;9.90;;;;;;;9.06;89.88;101755.61;100871;1284;81472;-60
2022/11/14 01:27:50;;;;;;;15.60;10.50;;;;;;;9.07;89.87;101753.66;100856;1292;88546;-61
2022/11/14 01:30:23;;;;;;;14.50;9.80;;;;;;;9.03;89.70;101753.34;100829;1290;81966;-58
2022/11/14 01:32:56;;;;;;;13.80;10.00;;;;;;;9.00;89.76;101752.20;100822;1292;99290;-58
2022/11/14 01:35:27;;;;;;;15.40;9.70;;;;;;;9.00;89.74;101746.33;100663;1287;95695;-60
2022/11/14 01:38:03;;;;;;;14.80;10.00;;;;;;;9.04;89.71;101745.59;100801;1292;82089;-62
2022/11/14 01:40:33;;;;;;;14.10;9.80;;;;;;;9.03;89.80;101746.16;100800;1292;88721;-58
2022/11/14 01:43:33;;;;;;;15.50;10.20;;;;;;;9.07;89.73;101745.44;100790;1284;82443;-58
2022/11/14 01:46:14;;;;;;;16.10;10.80;;;;;;;9.06;89.61;101743.93;100764;1292;99191;-59
2022/11/14 01:48:56;;;;;;;14.70;9.80;;;;;;;9.00;89.76;101738.69;100821;1292;93082;-61
2022/11/14 01:51:35;;;;;;;14.10;9.10;;;;;;;9.02;89.70;101736.58;100902;1292;82366;-61
2022/11/14 01:54:15;;;;;;;15.40;9.90;;;;;;;9.02;89.83;101733.19;100863;1284;87749;-61
2022/11/14 01:56:53;;;;;;;14.10;9.50;;;;;;;8.97;89.71;101728.23;100893;1289;82351;-58
2022/11/14 01:59:27;;;;;;;15.50;9.90;;;;;;;8.91;89.78;101731.52;100893;1292;99525;-61
2022/11/14 02:01:56;;;;;;;;;;;;;;;8.92;89.71;101729.11;100861;1292;93063;-61
2022/11/14 02:04:33;;;;;;;16.70;10.90;;;;;;;8.91;89.85;101728.99;100899;1285;83335;-61
2022/11/14 02:07:08;;;;;;;16.80;10.20;;;;;;;8.91;89.89;101727.34;100824;1291;88734;-61
2022/11/14 02:09:43;;;;;;;14.90;9.80;;;;;;;8.95;89.84;101728.27;100874;1284;80235;-59
2022/11/14 02:12:17;;;;;;;14.70;10.00;;;;;;;8.97;89.69;101723.59;100833;1285;98671;-57
2022/11/14 02:14:52;;;;;;;16.50;10.60;;;;;;;8.94;89.85;101714.20;100824;1292;93295;-58
2022/11/14 02:17:26;;;;;;;14.10;9.90;;;;;;;8.95;89.92;101716.41;100828;1292;81839;-59
2022/11/14 02:20:06;;;;;;;17.10;11.70;;;;;;;8.98;89.86;101717.02;100819;1292;89194;-61
2022/11/14 02:22:41;;;;;;;17.00;12.00;;;;;;;9.00;89.70;101713.93;100811;1292;81341;-60
2022/11/14 02:25:15;;;;;;;17.80;12.00;;;;;;;9.01;89.62;101713.70;100836;1291;99062;-61
2022/11/14 02:27:49;;;;;;;18.40;12.20;;;;;;;9.02;89.72;101712.47;100806;1293;94283;-59
2022/11/14 02:30:24;;;;;;;17.90;11.40;;;;;;;8.99;89.82;101706.70;100838;1292;83156;-57
2022/11/14 02:32:55;;;;;;;18.70;12.50;;;;;;;8.96;90.00;101704.13;100644;1287;89195;-57
2022/11/14 02:35:27;;;;;;;17.30;12.60;;;;;;;8.92;90.08;101703.21;100842;1292;82253;-60
2022/11/14 02:37:59;;;;;;;20.50;13.50;;;;;;;8.95;89.91;101701.64;100810;1292;99378;-60
2022/11/14 02:40:33;;;;;;;22.00;14.70;;;;;;;8.96;89.78;101703.52;100833;1292;95067;-59
2022/11/14 02:43:03;;;;;;;21.30;14.80;;;;;;;8.93;89.88;101701.16;100887;1291;80243;-60
2022/11/14 02:45:35;;;;;;;23.20;15.50;;;;;;;8.91;89.85;101698.13;100930;1292;89685;-58
2022/11/14 02:48:08;;;;;;;22.20;15.80;;;;;;;8.89;89.90;101699.70;100656;1289;80539;-60
2022/11/14 02:50:38;;;;;;;21.70;15.00;;;;;;;8.88;89.87;101696.35;100656;1295;98874;-60
2022/11/14 02:53:10;;;;;;;24.00;16.30;;;;;;;8.87;89.80;101687.45;100677;1295;95227;-58
2022/11/14 02:55:44;;;;;;;23.10;15.90;;;;;;;8.82;89.85;101686.50;100664;1293;80218;-57
2022/11/14 02:58:16;;;;;;;23.60;15.90;;;;;;;8.81;89.92;101684.98;100676;1287;88743;-58
2022/11/14 03:00:48;;;;;;;25.70;16.40;;;;;;;8.79;90.10;101689.14;100635;1286;82083;-57
2022/11/14 03:03:22;;;;;;;23.40;15.80;;;;;;;8.75;90.22;101684.91;100688;1287;99979;-60
2022/11/14 03:05:53;;;;;;;21.20;14.50;;;;;;;8.76;90.20;101683.00;100627;1294;93512;-60
2022/11/14 03:08:22;;;;;;;23.00;14.90;;;;;;;8.75;90.23;101684.57;100690;1293;81412;-57
2022/11/14 03:10:51;;;;;;;22.90;15.20;;;;;;;8.74;90.30;101683.21;100638;1286;87085;-57
2022/11/14 03:13:22;;;;;;;23.60;15.20;;;;;;;8.72;90.26;101683.21;100641;1293;80520;-58
2022/11/14 03:15:53;;;;;;;22.90;15.80;;;;;;;8.69;90.34;101679.50;100654;1289;99012;-57
2022/11/14 03:18:24;;;;;;;23.40;15.30;;;;;;;8.69;90.39;101679.88;100668;1293;95872;-59
2022/11/14 03:20:54;;;;;;;21.60;14.50;;;;;;;8.68;90.46;101682.36;100628;1293;81994;-59
2022/11/14 03:23:23;;;;;;;26.30;17.00;;;;;;;8.64;90.45;101678.24;100639;1294;87422;-57
2022/11/14 03:25:52;;;;;;;23.50;15.20;;;;;;;8.69;90.56;101677.98;100647;1287;81718;-58
2022/11/14 03:28:22;;;;;;;25.90;15.40;;;;;;;8.73;90.43;101674.14;100671;1294;99984;-57
2022/11/14 03:30:51;;;;;;;25.60;14.60;;;;;;;8.74;90.48;101672.58;100649;1291;93759;-57
2022/11/14 03:33:24;;;;;;;22.00;15.00;;;;;;;8.70;90.44;101670.66;100712;1288;82590;-60
2022/11/14 03:35:54;;;;;;;20.70;13.20;;;;;;;8.68;90.47;101675.68;100683;1287;87361;-60
2022/11/14 03:38:29;;;;;;;19.90;13.30;;;;;;;8.71;90.48;101670.52;100713;1294;82819;-57
2022/11/14 03:41:02;;;;;;;23.10;13.60;;;;;;;8.68;90.64;101667.42;100667;1294;99859;-58
2022/11/14 03:43:36;;;;;;;18.20;12.30;;;;;;;8.66;90.74;101670.89;100687;1294;94027;-59
2022/11/14 03:46:06;;;;;;;17.80;11.80;;;;;;;8.65;90.75;101670.11;100655;1294;81945;-60
2022/11/14 03:48:38;;;;;;;17.10;12.00;;;;;;;8.60;90.74;101669.82;100787;1284;87101;-61
2022/11/14 03:51:08;;;;;;;17.30;11.70;;;;;;;8.62;90.67;101665.46;100819;1291;81480;-60
2022/11/14 03:53:38;;;;;;;16.70;11.60;;;;;;;8.65;90.61;101661.45;100833;1292;97810;-60
2022/11/14 03:56:09;;;;;;;17.10;11.60;;;;;;;8.65;90.77;101656.38;100775;1284;92686;-60
2022/11/14 03:58:38;;;;;;;16.90;11.60;;;;;;;8.66;90.69;101657.02;100866;1285;82093;-60
2022/11/14 04:01:12;;;;;;;19.50;11.80;;;;;;;8.68;90.58;101657.50;100798;1292;89326;-60
2022/11/14 04:03:48;;;;;;;16.70;12.30;;;;;;;8.69;90.71;101652.09;100836;1291;82020;-59
2022/11/14 04:06:19;;;;;;;15.00;11.00;;;;;;;8.67;90.79;101647.41;100805;1284;98753;-60
2022/11/14 04:08:52;;;;;;;18.80;12.10;;;;;;;8.64;90.85;101649.55;100839;1291;95674;-60
2022/11/14 04:11:22;;;;;;;16.90;11.50;;;;;;;8.66;90.88;101645.00;100841;1292;82824;-60
2022/11/14 04:13:51;;;;;;;15.80;11.60;;;;;;;8.68;90.71;101646.40;100843;1292;88531;-59
2022/11/14 04:16:21;;;;;;;16.20;12.10;;;;;;;8.70;90.69;101642.64;100839;1284;80929;-60
2022/11/14 04:18:53;;;;;;;15.50;11.10;;;;;;;8.69;90.79;101646.48;100898;1292;99429;-58
2022/11/14 04:21:25;;;;;;;15.90;10.40;;;;;;;8.69;90.63;101644.31;100832;1292;95440;-57
2022/11/14 04:23:58;;;;;;;15.40;10.50;;;;;;;8.68;90.58;101648.02;100915;1284;81937;-58
2022/11/14 04:26:28;;;;;;;16.80;10.80;;;;;;;8.65;90.50;101645.43;100851;1286;85641;-58
2022/11/14 04:28:59;;;;;;;13.50;9.70;;;;;;;8.63;90.77;101637.38;100863;1292;81434;-58
2022/11/14 04:31:28;;;;;;;15.80;10.80;;;;;;;8.64;90.87;101633.21;100848;1285;98998;-57
2022/11/14 04:33:58;;;;;;;14.80;10.00;;;;;;;8.62;90.98;101632.32;100870;1290;95777;-60
2022/11/14 04:36:27;;;;;;;17.00;10.30;;;;;;;8.68;90.89;101632.30;100807;1285;82653;-60
2022/11/14 04:38:58;;;;;;;13.90;9.90;;;;;;;8.68;90.88;101628.31;100858;1284;89111;-57
2022/11/14 04:41:30;;;;;;;14.60;9.70;;;;;;;8.69;90.89;101625.46;100396;1284;575581;-58
2022/11/14 04:44:03;;;;;;;;;;;;;;;8.69;90.74;101623.67;100875;1285;99184;-58
2022/11/14 04:46:32;;;;;;;13.60;9.90;;;;;;;8.63;90.88;101625.88;100627;1295;95166;-57
2022/11/14 04:49:03;;;;;;;14.10;10.30;;;;;;;8.62;90.95;101629.06;100838;1284;82535;-60
2022/11/14 04:51:34;;;;;;;12.10;8.90;;;;;;;8.62;90.91;101629.46;100810;1285;86928;-58
2022/11/14 04:54:04;;;;;;;11.90;9.00;;;;;;;8.65;90.81;101624.06;100818;1284;81482;-58
2022/11/14 04:56:34;;;;;;;13.00;8.30;;;;;;;8.69;90.73;101622.63;100857;1292;99340;-59
2022/11/14 04:59:03;;;;;;;11.20;7.70;;;;;;;8.69;90.54;101621.31;100865;1292;96241;-58
2022/11/14 05:01:32;;;;;;;10.80;6.90;;;;;;;8.66;90.47;101624.17;100809;1278;83441;-60
2022/11/14 05:04:02;;;;;;;9.70;6.90;;;;;;;8.64;90.48;101626.16;100826;1292;88821;-58
2022/11/14 05:06:33;;;;;;;10.20;7.20;;;;;;;8.58;90.46;101625.16;100872;1291;82081;-59
2022/11/14 05:09:05;;;;;;;8.50;7.20;;;;;;;8.54;90.67;101623.03;100907;1285;96779;-57
2022/11/14 05:11:34;;;;;;;9.40;7.00;;;;;;;8.54;90.61;101621.45;100874;1286;94014;-56
2022/11/14 05:14:04;;;;;;;9.30;7.20;;;;;;;8.55;90.61;101617.19;100856;1285;83304;-60
2022/11/14 05:16:33;;;;;;;9.20;6.80;;;;;;;8.53;90.71;101614.69;100814;1292;88977;-59
2022/11/14 05:19:04;;;;;;;9.30;6.90;;;;;;;8.49;90.68;101617.55;100846;1284;82281;-57
2022/11/14 05:21:34;;;;;;;9.10;6.90;;;;;;;8.49;90.76;101616.00;100812;1290;97025;-57
2022/11/14 05:24:06;;;;;;;8.50;6.50;;;;;;;8.55;90.50;101614.30;100796;1291;93850;-60
2022/11/14 05:26:35;;;;;;;9.70;7.20;;;;;;;8.55;90.57;101615.04;100816;1284;80727;-56
2022/11/14 05:29:12;;;;;;;11.10;7.60;;;;;;;8.55;90.55;101615.95;100856;1289;89217;-58
2022/11/14 05:31:46;;;;;;;9.60;7.70;;;;;;;8.55;90.59;101613.90;100808;1285;79771;-57
2022/11/14 05:34:23;;;;;;;9.80;6.90;;;;;;;8.57;90.50;101609.84;100788;1284;98481;-60
2022/11/14 05:36:53;;;;;;;9.10;6.90;;;;;;;8.57;90.42;101605.85;100816;1285;94795;-59
2022/11/14 05:39:22;;;;;;;11.10;6.40;;;;;;;8.56;90.49;101604.35;100827;1276;81898;-59
2022/11/14 05:41:51;;;;;;;9.80;6.50;;;;;;;8.50;90.47;101608.48;100829;1285;89096;-59
2022/11/14 05:44:21;;;;;;;9.90;6.20;;;;;;;8.45;90.54;101609.71;100848;1291;82415;-57
2022/11/14 05:46:55;;;;;;;9.10;6.40;;;;;;;8.46;90.48;101613.05;100831;1292;99109;-57
2022/11/14 05:49:25;;;;;;;10.80;6.40;;;;;;;8.49;90.46;101614.36;100867;1288;96101;-61
2022/11/14 05:51:58;;;;;;;9.80;6.70;;;;;;;8.47;90.54;101616.15;100879;1284;83442;-61
2022/11/14 05:54:30;;;;;;;10.00;6.70;;;;;;;8.47;90.51;101620.45;100878;1292;89369;-62
2022/11/14 05:57:00;;;;;;;9.40;6.50;;;;;;;8.46;90.49;101618.89;100907;1292;81520;-60
2022/11/14 05:59:29;;;;;;;11.70;7.20;;;;;;;8.47;90.66;101622.38;100877;1285;98179;-60
2022/11/14 06:01:59;;;;;;;9.50;6.50;;;;;;;8.49;90.55;101617.69;100805;1285;93867;-59
2022/11/14 06:04:29;;;;;;;9.00;6.50;;;;;;;8.53;90.37;101618.11;100873;1290;83166;-58
2022/11/14 06:07:00;;;;;;;9.70;7.00;;;;;;;8.52;90.36;101615.27;100791;1284;89208;-58
2022/11/14 06:09:32;;;;;;;13.00;6.80;;;;;;;8.54;90.25;101614.96;100863;1292;80782;-60
2022/11/14 06:12:06;;;;;;;9.30;6.70;;;;;;;8.54;90.21;101617.21;100807;1284;99951;-60
2022/11/14 06:14:39;;;;;;;8.00;6.00;;;;;;;8.52;90.42;101618.85;100838;1284;95408;-62
2022/11/14 06:17:08;;;;;;;7.60;6.30;;;;;;;8.48;90.32;101620.20;100834;1292;82237;-61
2022/11/14 06:19:41;;;;;;;8.50;6.20;;;;;;;8.48;90.25;101622.86;100839;1284;88486;-57
2022/11/14 06:22:11;;;;;;;8.60;6.30;;;;;;;8.49;90.29;101623.13;100810;1292;81004;-58
2022/11/14 06:24:42;;;;;;;9.70;6.80;;;;;;;8.52;90.18;101624.86;100869;1292;98283;-58
2022/11/14 06:27:12;;;;;;;8.20;6.80;;;;;;;8.53;90.17;101626.02;100813;1284;94949;-58
2022/11/14 06:29:44;;;;;;;10.20;7.30;;;;;;;8.55;90.01;101627.22;100927;1285;83337;-58
2022/11/14 06:32:16;;;;;;;9.20;6.60;;;;;;;8.52;90.04;101626.05;100826;1276;87719;-57
2022/11/14 06:34:52;;;;;;;9.40;6.80;;;;;;;8.49;90.23;101627.05;100901;1284;79611;-60
2022/11/14 06:37:25;;;;;;;9.80;6.90;;;;;;;8.48;90.21;101629.13;100843;1285;97944;-59
2022/11/14 06:39:55;;;;;;;9.20;7.00;;;;;;;8.46;90.25;101628.83;100855;1292;93396;-57
2022/11/14 06:42:26;;;;;;;9.10;6.90;;;;;;;8.49;90.16;101635.36;100842;1291;80294;-56
2022/11/14 06:45:00;;;;;;;9.10;6.50;;;;;;;8.53;90.22;101634.42;100858;1292;88562;-58
2022/11/14 06:47:35;;;;;;;9.40;7.00;;;;;;;8.57;90.22;101633.45;100793;1284;82357;-59
2022/11/14 06:50:05;;;;;;;9.30;6.20;;;;;;;8.57;90.27;101633.80;100840;1291;99321;-60
2022/11/14 06:52:36;;;;;;;8.80;6.40;;;;;;;8.59;90.17;101639.36;100845;1292;94546;-60
2022/11/14 06:55:10;;;;;;;9.00;6.10;;;;;;;8.63;90.13;101637.58;100865;1285;79875;-60
2022/11/14 06:57:43;;;;;;;9.00;6.10;;;;;;;8.65;90.05;101637.91;100805;1284;86865;-59
2022/11/14 07:00:18;;;;;;;8.40;6.00;;;;;;;8.66;89.99;101638.54;100867;1291;81733;-59
2022/11/14 07:02:50;;;;;;;8.60;6.30;;;;;;;8.69;89.96;101635.21;100820;1284;97803;-59
2022/11/14 07:05:26;;;;;;;8.90;6.30;;;;;;;8.70;89.90;101638.13;100838;1284;95298;-57
2022/11/14 07:08:02;;;;;;;8.20;5.70;;;;;;;8.73;89.80;101634.41;100820;1278;83285;-61
2022/11/14 07:10:31;;;;;;;8.50;6.10;;;;;;;8.77;89.68;101634.24;100873;1284;87402;-59
2022/11/14 07:13:05;;;;;;;7.50;5.70;;;;;;;8.83;89.63;101635.01;100872;1291;80761;-59
2022/11/14 07:15:34;;;;;;;11.30;6.90;;;;;;;8.80;89.57;101637.33;100896;1284;99862;-59
2022/11/14 07:18:10;;;;;;;11.10;7.00;;;;;;;8.78;89.45;101634.13;100803;1292;93622;-57
2022/11/14 07:20:48;;;;;;;9.20;6.80;;;;;;;8.76;89.35;101635.76;100845;1284;83131;-58
2022/11/14 07:23:20;;;;;;;10.20;7.40;;;;;;;8.68;89.33;101632.21;100898;1284;88867;-61
2022/11/14 07:26:03;;;;;;;8.10;6.40;;;;;;;8.66;89.32;101629.39;100835;1285;80563;-61
2022/11/14 07:28:34;;;;;;;10.00;7.20;;;;;;;8.66;89.13;101627.96;100844;1288;99966;-60
2022/11/14 07:31:07;;;;;;;9.50;7.00;;;;;;;8.61;89.15;101625.91;100848;1284;94991;-59
2022/11/14 07:33:37;;;;;;;8.50;6.30;;;;;;;8.57;89.18;101628.95;100824;1292;82905;-61
2022/11/14 07:36:12;;;;;;;8.80;7.00;;;;;;;8.58;89.22;101628.39;100803;1292;88914;-60
2022/11/14 07:38:46;;;;;;;11.30;7.10;;;;;;;8.60;89.19;101629.60;100857;1290;80138;-58
2022/11/14 07:41:20;;;;;;;10.60;8.80;;;;;;;8.57;89.17;101623.73;100785;1285;99299;-58
2022/11/14 07:43:49;;;;;;;10.20;7.30;;;;;;;8.63;89.04;101623.08;100807;1285;95209;-61
2022/11/14 07:46:23;;;;;;;8.80;7.40;;;;;;;8.55;89.28;101617.85;100766;1293;82003;-61
2022/11/14 07:48:55;;;;;;;8.30;6.10;;;;;;;8.58;89.20;101621.36;100796;1287;88098;-61
2022/11/14 07:51:27;;;;;;;8.10;5.90;;;;;;;8.57;89.17;101622.89;100792;1292;81964;-60
2022/11/14 07:53:57;;;;;;;7.60;5.30;;;;;;;8.52;89.05;101620.30;100834;1292;98418;-62
2022/11/14 07:56:26;;;;;;;7.60;5.30;;;;;;;8.56;89.18;101618.30;100819;1291;92369;-60
2022/11/14 07:58:55;;;;;;;8.20;5.90;;;;;;;8.55;89.09;101620.39;100839;1279;82652;-60
2022/11/14 08:01:27;;;;;;;8.70;5.30;;;;;;;8.54;89.13;101619.17;100795;1287;88777;-59
2022/11/14 08:03:56;;;;;;;5.70;4.70;;;;;;;8.56;89.04;101618.53;100857;1287;81170;-60
2022/11/14 08:06:27;;;;;;;6.90;4.80;;;;;;;8.54;89.07;101614.05;100823;1287;98750;-60
2022/11/14 08:08:56;;;;;;;7.00;5.10;;;;;;;8.56;88.98;101612.06;100836;1292;94772;-58
2022/11/14 08:14:09;;;;;;;8.40;5.10;;;;;;;8.62;88.80;101608.80;100826;1284;87119;-57
2022/11/14 08:16:38;;;;;;;6.30;4.90;;;;;;;8.65;88.83;101605.26;100825;1288;81273;-58
2022/11/14 08:19:09;;;;;;;8.20;4.90;;;;;;;8.65;88.57;101601.65;100853;1293;97460;-60
2022/11/14 08:21:41;;;;;;;9.40;4.50;;;;;;;8.64;88.57;101601.44;100833;1287;94930;-62
2022/11/14 08:24:14;;;;;;;6.10;4.80;;;;;;;8.55;88.33;101604.44;100892;1284;81878;-60
2022/11/14 08:26:48;;;;;;;6.50;4.80;;;;;;;8.48;88.20;101604.02;100828;1291;89020;-59
2022/11/14 08:29:19;;;;;;;6.30;4.70;;;;;;;8.46;88.20;101601.66;100837;1293;82497;-60
2022/11/14 08:31:51;;;;;;;6.50;5.30;;;;;;;8.45;88.15;101601.30;100805;1288;98582;-60
2022/11/14 08:34:23;;;;;;;6.80;5.10;;;;;;;8.49;88.16;101597.48;100801;1288;92770;-61
2022/11/14 08:36:57;;;;;;;7.10;4.80;;;;;;;8.49;88.13;101594.59;100812;1285;82978;-60
2022/11/14 08:39:27;;;;;;;6.50;5.30;;;;;;;8.52;88.13;101591.44;100821;1288;88773;-59
2022/11/14 08:42:00;;;;;;;7.20;5.10;;;;;;;8.55;88.24;101590.23;100812;1285;82413;-58
2022/11/14 08:44:33;;;;;;;7.30;5.00;;;;;;;8.58;88.27;101589.09;100844;1291;98176;-60
2022/11/14 08:47:06;;;;;;;7.40;5.50;;;;;;;8.60;88.32;101587.55;100778;1287;95348;-61
2022/11/14 08:49:43;;;;;;;6.60;5.10;;;;;;;8.70;88.29;101582.27;100870;1285;81248;-61
2022/11/14 08:52:12;;;;;;;7.10;4.90;;;;;;;8.69;88.46;101582.78;100844;1287;86686;-61
2022/11/14 08:54:41;;;;;;;6.80;4.70;;;;;;;8.74;88.17;101577.03;100870;1288;81679;-60
2022/11/14 08:57:14;;;;;;;7.90;4.60;;;;;;;8.69;88.15;101572.67;100823;1286;99103;-62
2022/11/14 08:59:43;;;;;;;6.20;4.40;;;;;;;8.71;87.90;101573.89;100829;1292;93807;-59
2022/11/14 09:02:17;;;;;;;6.00;4.90;;;;;;;8.75;88.06;101572.81;100818;1285;81677;-58
2022/11/14 09:04:46;;;;;;;6.50;4.50;;;;;;;8.77;87.97;101569.16;100837;1285;88335;-59
2022/11/14 09:07:18;;;;;;;6.00;4.30;;;;;;;8.81;87.88;101569.68;100763;1291;82076;-59
2022/11/14 09:09:47;;;;;;;7.00;4.30;;;;;;;8.83;87.97;101567.34;100810;1291;98828;-57
2022/11/14 09:12:20;;;;;;;5.30;4.10;;;;;;;8.84;87.80;101565.60;100787;1285;93828;-57
2022/11/14 09:14:52;;;;;;;5.60;3.70;;;;;;;8.93;87.59;101563.53;100857;1286;82915;-61
2022/11/14 09:17:22;;;;;;;4.20;3.40;;;;;;;9.02;87.83;101558.16;100815;1286;88537;-60
2022/11/14 09:19:53;;;;;;;4.80;3.40;;;;;;;9.05;87.62;101558.01;100836;1287;82189;-60
2022/11/14 09:22:23;;;;;;;6.60;4.40;;;;;;;9.07;87.38;101552.94;100837;1287;100091;-61
2022/11/14 09:24:57;;;;;;;5.60;4.30;;;;;;;9.04;86.82;101551.16;100864;1292;94710;-58
2022/11/14 09:27:29;;;;;;;5.50;4.10;;;;;;;9.02;86.56;101550.39;100825;1288;81697;-58
2022/11/14 09:29:58;;;;;;;6.00;4.70;;;;;;;8.89;86.39;101548.95;100813;1292;88635;-58
2022/11/14 09:32:30;;;;;;;7.20;5.30;;;;;;;8.82;86.66;101546.05;100786;1291;80689;-58
2022/11/14 09:34:59;;;;;;;6.50;5.10;;;;;;;8.83;86.68;101545.81;100804;1292;99415;-56
2022/11/14 09:37:29;;;;;;;6.40;5.00;;;;;;;8.80;86.77;101548.25;100792;1292;94045;-59
2022/11/14 09:39:59;;;;;;;5.90;5.10;;;;;;;8.74;86.45;101542.75;100830;1292;83488;-60
2022/11/14 09:42:52;;;;;;;6.70;5.00;;;;;;;8.67;86.54;101542.59;100781;1287;88016;-60
2022/11/14 09:45:25;;;;;;;7.40;5.60;;;;;;;8.66;86.77;101541.77;100853;1287;81233;-59
2022/11/14 09:48:04;;;;;;;7.30;5.90;;;;;;;8.65;86.62;101544.92;100803;1292;98689;-62
2022/11/14 09:50:38;;;;;;;7.70;6.30;;;;;;;8.60;86.88;101538.73;100828;1292;94175;-58
2022/11/14 09:53:23;;;;;;;8.30;7.10;;;;;;;8.61;86.81;101536.28;100833;1288;81860;-60
2022/11/14 09:55:57;;;;;;;7.50;6.40;;;;;;;8.62;86.88;101536.23;100787;1287;87409;-58
2022/11/14 09:58:28;;;;;;;8.60;6.90;;;;;;;8.55;87.00;101534.41;100839;1292;82615;-59
2022/11/14 10:01:12;;;;;;;7.70;6.90;;;;;;;8.57;86.99;101534.25;100812;1287;100141;-59
2022/11/14 10:03:54;;;;;;;9.70;7.60;;;;;;;8.57;87.12;101533.31;100811;1284;95574;-58
2022/11/14 10:06:31;;;;;;;;;;;;;;;8.59;86.97;101532.53;100809;1284;82639;-58
2022/11/14 10:09:38;;;;;;;7.10;6.20;;;;;;;8.64;86.99;101533.49;100817;1288;88933;-60
2022/11/14 10:12:18;;;;;;;7.70;5.70;;;;;;;8.66;86.98;101529.38;100781;1290;82407;-60
2022/11/14 10:15:22;;;;;;;8.20;6.20;;;;;;;8.61;86.89;101531.77;100848;1292;98414;-61
2022/11/14 10:18:35;;;;;;;6.80;5.90;;;;;;;8.66;86.97;101531.88;100826;1290;94835;-60
2022/11/14 10:21:33;;;;;;;8.20;6.70;;;;;;;8.70;86.89;101524.65;100765;1287;84678;-58
2022/11/14 10:24:23;;;;;;;8.10;6.40;;;;;;;8.66;87.03;101518.02;100834;1288;88482;-60
2022/11/14 10:27:04;;;;;;;7.90;6.40;;;;;;;8.74;86.96;101519.61;100817;1291;82250;-59
2022/11/14 10:30:02;;;;;;;6.90;6.00;;;;;;;8.76;86.99;101518.52;100869;1292;99556;-57
2022/11/14 10:32:51;;;;;;;7.50;5.70;;;;;;;8.74;86.73;101516.37;100812;1292;95423;-58
2022/11/14 10:35:30;;;;;;;6.90;5.60;;;;;;;8.71;86.70;101510.67;100845;1292;82430;-60
2022/11/14 10:38:11;;;;;;;6.40;5.10;;;;;;;8.72;86.84;101513.83;100827;1291;89293;-62
2022/11/14 10:40:46;;;;;;;7.00;6.00;;;;;;;8.71;86.91;101506.19;100794;1287;81464;-61
2022/11/14 10:43:26;;;;;;;7.50;5.70;;;;;;;8.75;86.80;101499.52;100853;1287;99649;-62
2022/11/14 10:46:05;;;;;;;9.70;5.40;;;;;;;8.77;86.62;101496.13;100793;1292;93266;-61
2022/11/14 10:48:39;;;;;;;6.40;5.50;;;;;;;8.73;86.69;101491.80;100810;1285;82681;-60
2022/11/14 10:51:21;;;;;;;7.00;5.50;;;;;;;8.80;86.55;101490.56;100746;1287;87364;-61
2022/11/14 10:54:02;;;;;;;6.50;5.40;;;;;;;8.81;86.45;101490.86;100833;1284;81615;-59
2022/11/14 10:56:40;;;;;;;5.90;5.10;;;;;;;8.82;86.15;101488.98;100838;1287;98712;-59
2022/11/14 10:59:12;;;;;;;6.80;5.50;;;;;;;8.80;86.27;101483.24;100867;1292;93405;-59
2022/11/14 11:01:54;;;;;;;6.70;5.90;;;;;;;8.80;85.93;101483.42;100832;1290;81229;-58
2022/11/14 11:04:28;;;;;;;;;;;;;;;8.69;85.92;101478.55;100849;1292;88667;-61
2022/11/14 11:12:55;;;;;;;6.50;5.00;;;;;;;8.71;85.91;101463.52;100794;1293;95094;-60
2022/11/14 11:15:31;;;;;;;7.40;5.10;;;;;;;8.71;85.80;101456.27;100836;1291;83566;-58
2022/11/14 11:18:05;;;;;;;6.20;5.10;;;;;;;8.78;85.94;101454.02;100797;1287;88736;-57
2022/11/14 11:20:39;;;;;;;6.00;4.90;;;;;;;8.77;85.93;101447.27;100805;1279;82072;-61
2022/11/14 11:23:22;;;;;;;8.00;6.20;;;;;;;8.84;86.02;101447.25;100856;1288;99518;-61
2022/11/14 11:26:06;;;;;;;8.60;6.40;;;;;;;8.88;85.93;101442.55;100830;1285;93345;-61
2022/11/14 11:28:37;;;;;;;9.00;6.30;;;;;;;8.90;85.99;101444.48;100798;1287;82017;-59
2022/11/14 11:31:09;;;;;;;8.90;6.70;;;;;;;8.87;85.93;101438.84;100852;1294;87759;-59
2022/11/14 11:33:42;;;;;;;10.20;6.90;;;;;;;8.76;86.08;101437.06;100869;1292;81904;-61
2022/11/14 11:36:23;;;;;;;9.60;7.00;;;;;;;8.81;86.04;101431.36;100807;1292;99116;-61
2022/11/14 11:38:53;;;;;;;11.10;7.90;;;;;;;8.84;86.04;101424.96;100823;1291;93179;-62
2022/11/14 11:41:32;;;;;;;10.80;7.90;;;;;;;8.91;85.93;101427.56;100836;1293;81978;-63
2022/11/14 11:44:08;;;;;;;11.30;8.00;;;;;;;8.96;85.75;101427.02;100751;1294;87927;-60
2022/11/14 11:46:47;;;;;;;13.00;9.00;;;;;;;8.94;85.59;101421.52;100790;1292;80816;-61
2022/11/14 11:49:25;;;;;;;13.10;8.80;;;;;;;8.99;85.70;101421.13;100845;1291;98680;-61
2022/11/14 11:52:12;;;;;;;10.60;8.40;;;;;;;9.02;85.32;101419.61;100773;1285;94932;-62
2022/11/14 11:54:57;;;;;;;10.20;8.40;;;;;;;8.92;85.33;101406.98;100816;1287;81537;-61
2022/11/14 11:57:42;;;;;;;7.90;6.50;;;;;;;8.87;85.48;101408.83;100794;1292;88958;-62